logo
App data

I Expect You To Die

Play as a secret agent armed with telekinetic abilities on a mission to stop Zoraxis, a nefarious global weapons and pharmaceutical corporation.
Store | Hub | SteamDB | Site
Developer: Schell Games Publisher: Schell Games
Genre: Indie
Languages: English
Tags: VR (51), Puzzle (38), Indie (36), Funny (22), Cold War (12), Singleplayer (12), Action (9), First-Person (7)
Category: Single-player, Steam Achievements, Steam Trading Cards
Release date: Apr 25, 2017
Price: $24.99
Old userscore: 94% Metascore: 77%
Owners: 200,000 .. 500,000
Followers: 6,888
Peak concurrent players yesterday: 108
YouTube stats: 535 views and 66 comments for top 50 videos uploaded last week, 4 new videos uploaded yesterday.
Playtime in the last 2 weeks: 01:51 (average) 02:10 (median)
Playtime total: 02:27 (average) 02:38 (median)

Steam Spy is still in beta, so expect major bugs.

Owners data:

Access restricted.

This feature is only available to users with special access rights. Sorry.

If you want to proceed, you need to register or log in first and then back Steam Spy on Patreon. Look for Indie or Pro pledge.

Don't forget to use the same email as on Steam Spy!

Audience in 2 weeks:

Access restricted.

This feature is only available to users with special access rights. Sorry.

If you want to proceed, you need to register or log in first and then back Steam Spy on Patreon. Look for Indie or Pro pledge.

Don't forget to use the same email as on Steam Spy!

Peak daily concurrent players:

CCU data courtesy of SteamDB. Used with permission.

Hourly concurrent players:

Daily Twitch stats:

Hourly Twitch stats:

Followers over time

Access restricted.

This feature is only available to users with special access rights. Sorry.

If you want to proceed, you need to register or log in first and then back Steam Spy on Patreon. Look for Indie or Pro pledge.

Don't forget to use the same email as on Steam Spy!

Views for top 50 videos on YouTube for this game:

Games similar to this one:

# Game Release date
Price
Score rank
(Userscore / Metascore)
Owners
Players
Playtime (Median)
1 The guard of dungeon Mar 7, 2017 $6.99N/A (N/A)20,000 .. 50,0000%00:00 (00:00)
2 Masky Dec 16, 2016 $0.99N/A (N/A)20,000 .. 50,0000%00:00 (00:00)
3 Brother Wings Jan 10, 2017 $0.99N/A (N/A)20,000 .. 50,0000%00:00 (00:00)
4 Winexy Jan 13, 2017 $4.99N/A (N/A)50,000 .. 100,0000%00:00 (00:00)
5 Dungeon Painter Studio Feb 26, 2017 $14.99N/A (N/A)50,000 .. 100,0000%00:00 (00:00)
6 The Floor is Jelly May 30, 2014 $9.99N/A (N/A/83%)50,000 .. 100,0000%00:00 (00:00)
7 LogiGun Aug 1, 2012 $4.99N/A (N/A)0 .. 20,0000%00:00 (00:00)
8 Swipecart May 8, 2014 $2.99N/A (N/A)50,000 .. 100,0007.69%00:44 (00:14)
9 Metrocide Oct 20, 2014 $12.99N/A (N/A/68%)50,000 .. 100,0000%00:00 (00:00)
10 Spy Chameleon - RGB Agent Jun 11, 2014 $4.99N/A (N/A)20,000 .. 50,0000%00:00 (00:00)
11 REVOLVER360 RE:ACTOR Oct 24, 2014 $9.99N/A (N/A)20,000 .. 50,0000%00:00 (00:00)
12 Ichi Jun 12, 2014 $4.99N/A (N/A)100,000 .. 200,0000%00:00 (00:00)
13 GamersGoMakers Aug 8, 2014 $8.99N/A (N/A)20,000 .. 50,0000%00:00 (00:00)
14 The Blue Flamingo Nov 18, 2014 $4.99N/A (N/A/55%)100,000 .. 200,0004.76%00:32 (00:10)
15 Crazy Plant Shop Aug 4, 2014 $4.99N/A (N/A)20,000 .. 50,0000%00:00 (00:00)
16 Cyto Jul 10, 2014 $3.99N/A (N/A)0 .. 20,0000%00:00 (00:00)
17 Pressured Jul 18, 2014 $2.99N/A (N/A)200,000 .. 500,0000%00:00 (00:00)
18 Hidden in Plain Sight Jul 16, 2014 $5.99N/A (N/A)0 .. 20,0000%00:00 (00:00)
19 Automation - The Car Company Tycoon Game Mar 12, 2015 $29.99N/A (N/A)200,000 .. 500,0000%00:00 (00:00)
20 Cute Things Dying Violently Sep 2, 2015 $2.99N/A (N/A)0 .. 20,0000%00:00 (00:00)
21 Sweezy Gunner May 6, 2014 $3.99N/A (N/A)20,000 .. 50,0000%00:00 (00:00)
22 Super Lemonade Factory Mar 15, 2012 $0.99N/A (N/A)0 .. 20,0000%00:00 (00:00)
23 Quantum Rush Champions Dec 4, 2014 $9.99N/A (N/A)20,000 .. 50,0000%00:00 (00:00)
24 Castle Jan 7, 2015 $4.99N/A (N/A)20,000 .. 50,0000%00:00 (00:00)
25 Laserlife Sep 22, 2015 $9.99N/A (N/A)20,000 .. 50,0000%00:00 (00:00)
26 Cubot Jan 8, 2015 $1.99N/A (N/A)20,000 .. 50,0000%00:00 (00:00)
27 Letter Quest: Grimm's Journey Nov 20, 2014 $7.99N/A (N/A/73%)100,000 .. 200,00020%02:32 (01:16)
28 Death Goat Jun 7, 2016 N/AN/A (N/A)20,000 .. 50,0000%00:00 (00:00)
29 ROOMS: The Toymaker's Mansion May 1, 2015 $14.99N/A (N/A/66%)0 .. 20,0000%00:00 (00:00)
30 Unhack Feb 20, 2014 $3.99N/A (N/A)20,000 .. 50,0000%00:00 (00:00)
31 Shutshimi Aug 25, 2015 $4.99N/A (N/A)50,000 .. 100,0000%00:00 (00:00)
32 Jamsouls Aug 24, 2014 $3.99N/A (N/A)0 .. 20,0000%00:00 (00:00)
33 Prelogate Dec 10, 2014 $3.99N/A (N/A)0 .. 20,0000%00:00 (00:00)
34 room13 Jan 13, 2017 $7.99N/A (N/A)0 .. 20,0000%00:00 (00:00)
35 Square Heroes Apr 9, 2015 $3.99N/A (N/A)20,000 .. 50,0000%00:00 (00:00)
36 Bloop Reloaded Feb 6, 2015 FreeN/A (N/A)50,000 .. 100,0000%00:00 (00:00)
37 Steam and Metal Feb 9, 2015 $4.99N/A (N/A)0 .. 20,0000%00:00 (00:00)
38 A Good Snowman Is Hard To Build Feb 25, 2015 $9.99N/A (N/A)50,000 .. 100,0000%00:00 (00:00)
39 Marble Duel: Sphere-Matching Tactical Fantasy Nov 12, 2015 $14.99N/A (N/A)50,000 .. 100,0000%00:00 (00:00)
40 Streets of Chaos Jan 23, 2015 N/AN/A (N/A)20,000 .. 50,0000%00:00 (00:00)
41 Botology Jun 24, 2015 $0.49N/A (N/A)50,000 .. 100,0000%00:00 (00:00)
42 GunWorld Nov 16, 2014 $1.99N/A (N/A)0 .. 20,0000%00:00 (00:00)
43 Aero's Quest Jun 8, 2015 $4.99N/A (N/A)0 .. 20,0000%00:00 (00:00)
44 Venusian Vengeance Oct 25, 2012 $3.99N/A (N/A)20,000 .. 50,0000%00:00 (00:00)
45 Power of Love Jul 21, 2015 $0.99N/A (N/A)20,000 .. 50,0000%00:00 (00:00)
46 Avalanche 2: Super Avalanche Jun 11, 2015 $4.99N/A (N/A)50,000 .. 100,00010%00:28 (00:09)
47 Age of Castles: Warlords May 15, 2015 $2.99N/A (N/A)0 .. 20,0000%00:00 (00:00)
48 Stephen's Sausage Roll Apr 18, 2016 $29.99N/A (N/A/90%)20,000 .. 50,0000%00:00 (00:00)
49 Bob Was Hungry Aug 19, 2015 $9.99N/A (N/A)50,000 .. 100,0000%00:00 (00:00)
50 Pester Jan 25, 2013 $0.99N/A (N/A)100,000 .. 200,0000%00:00 (00:00)
51 Pixel Puzzles 2: Birds Feb 20, 2015 $4.99N/A (N/A)200,000 .. 500,0000%00:00 (00:00)
52 The Reject Demon: Toko Chapter 0 — Prelude May 9, 2015 $4.99N/A (N/A)20,000 .. 50,0000%00:00 (00:00)
53 Quell May 14, 2015 $3.99N/A (N/A)0 .. 20,0000%00:00 (00:00)
54 Cursed Sight Aug 3, 2015 $4.99N/A (N/A)20,000 .. 50,0000%00:00 (00:00)
55 Stay Alight Mar 2, 2015 $3.99N/A (N/A)50,000 .. 100,0000%00:00 (00:00)
56 in Space Apr 27, 2015 $0.99N/A (N/A)0 .. 20,0000%00:00 (00:00)
57 Robot vs Birds Zombies Jun 1, 2013 $0.99N/A (N/A)500,000 .. 1,000,0000%00:00 (00:00)
58 The Dolls: Reborn May 25, 2016 $4.99N/A (N/A)20,000 .. 50,0000%00:00 (00:00)
59 Lift It Jan 20, 2017 $4.99N/A (N/A)50,000 .. 100,0000%00:00 (00:00)
60 Richie's Plank Experience Dec 13, 2017 $14.99N/A (N/A)20,000 .. 50,0000%00:00 (00:00)
61 Cibele Nov 2, 2015 $8.99N/A (N/A/71%)50,000 .. 100,0000%00:00 (00:00)
62 Cold Waters Jun 5, 2017 $39.99N/A (N/A)50,000 .. 100,0000%00:00 (00:00)
63 Herding Dog Dec 25, 2015 $1.99N/A (N/A)0 .. 20,0000%00:00 (00:00)
64 Machine Hunt May 15, 2017 $2.99N/A (N/A)50,000 .. 100,0000%00:00 (00:00)
65 Narcissu 10th Anniversary Anthology Project Jan 27, 2016 $2.99N/A (N/A)20,000 .. 50,0000%00:00 (00:00)
66 Super Star Path Jun 22, 2015 $4.99N/A (N/A)50,000 .. 100,0000%00:00 (00:00)
67 Sophie's Curse Mar 16, 2016 $4.99N/A (N/A)50,000 .. 100,0000%00:00 (00:00)
68 Fingered Aug 18, 2015 $1.87N/A (N/A)50,000 .. 100,0000%00:00 (00:00)
69 A grande bagunça espacial - The big space mess Apr 5, 2016 $0.99N/A (N/A)200,000 .. 500,0000%00:00 (00:00)
70 Painters Guild Sep 1, 2015 $9.99N/A (N/A)20,000 .. 50,0000%00:00 (00:00)
71 Burst Mar 14, 2016 N/AN/A (N/A)20,000 .. 50,0000%00:00 (00:00)
72 In Between Aug 21, 2015 $11.99N/A (N/A/68%)50,000 .. 100,0000%00:00 (00:00)
73 Autumn Sep 23, 2014 $2.99N/A (N/A)100,000 .. 200,0000%00:00 (00:00)
74 Tribloos 2 Jan 12, 2013 $4.99N/A (N/A)100,000 .. 200,0004.76%01:00 (00:20)
75 Governor of Poker 2 - Premium Edition Oct 11, 2010 $14.99N/A (N/A)20,000 .. 50,0000%00:00 (00:00)
76 About Love, Hate and the other ones Dec 12, 2014 $6.99N/A (N/A)100,000 .. 200,0000%00:00 (00:00)
77 Ancients of Ooga May 20, 2011 $9.99N/A (N/A)20,000 .. 50,0000%00:00 (00:00)
78 On Rusty Trails Jun 13, 2016 $12.99N/A (N/A/77%)20,000 .. 50,0000%00:00 (00:00)
79 Blocks That Matter Aug 19, 2011 $4.99N/A (N/A/72%)100,000 .. 200,0000%00:00 (00:00)
80 Diadra Empty Jul 21, 2015 $5.99N/A (N/A)0 .. 20,0000%00:00 (00:00)
81 Puzzler World 2 Oct 24, 2011 $4.99N/A (N/A)50,000 .. 100,0000%00:00 (00:00)
82 Sokobond Jul 21, 2014 $9.99N/A (N/A/82%)20,000 .. 50,0000%00:00 (00:00)
83 Luxor Evolved Mar 1, 2012 $9.99N/A (N/A)50,000 .. 100,0000%00:00 (00:00)
84 AaAaAA!!! - A Reckless Disregard for Gravity Sep 3, 2009 $9.99N/A (N/A/81%)100,000 .. 200,0000%00:00 (00:00)
85 Cloudberry Kingdom Aug 2, 2013 N/AN/A (N/A/67%)20,000 .. 50,0000%00:00 (00:00)
86 Metal Drift Oct 22, 2009 $9.99N/A (N/A)20,000 .. 50,0000%00:00 (00:00)
87 Divide By Sheep Jul 2, 2015 $4.99N/A (N/A/83%)2,000,000 .. 5,000,0000%00:00 (00:00)
88 Luxor: 5th Passage Jan 25, 2011 $9.99N/A (N/A)50,000 .. 100,0000%00:00 (00:00)
89 Aqua Kitty - Milk Mine Defender Feb 3, 2014 $6.99N/A (N/A)20,000 .. 50,0000%00:00 (00:00)
90 Glowfish Sep 30, 2011 $9.99N/A (N/A)20,000 .. 50,0000%00:00 (00:00)

Geography of active players over time, share:

Access restricted.

This feature is only available to users with special access rights. Sorry.

If you want to proceed, you need to register or log in first and then back Steam Spy on Patreon. Look for Indie or Pro pledge.

Don't forget to use the same email as on Steam Spy!

Tags over time:

Access restricted.

This feature is only available to users with special access rights. Sorry.

If you want to proceed, you need to register or log in first and then back Steam Spy on Patreon. Look for Indie or Pro pledge.

Don't forget to use the same email as on Steam Spy!

Owners of this game also own:

Access restricted.

This feature is only available to users with special access rights. Sorry.

If you want to proceed, you need to register or log in first and then back Steam Spy on Patreon. Look for Indie or Pro pledge.

Don't forget to use the same email as on Steam Spy!

Playtime distribution:

Access restricted.

This feature is only available to users with special access rights. Sorry.

If you want to proceed, you need to register or log in first and then back Steam Spy on Patreon. Look for Indie or Pro pledge.

Don't forget to use the same email as on Steam Spy!

Playtime (2 weeks):

Access restricted.

This feature is only available to users with special access rights. Sorry.

If you want to proceed, you need to register or log in first and then back Steam Spy on Patreon. Look for Indie or Pro pledge.

Don't forget to use the same email as on Steam Spy!

User reviews:

Login required.

Please register or log in to see this information.